Time;durP1;ratioP1;P1;durP2;ratioP2;P2;SDS_P1;SDS_P2;PMS_P1;PMS_P2;Temp;Humidity;BMP_temperature;BMP_pressure;BME280_temperature;BME280_humidity;BME280_pressure;Samples;Min_cycle;Max_cycle;Signal;HPM_P1;HPM_P2
2023/04/08 00:00:34;;;;;;;;;;;;;;;12.12;48.59;99065.06;5094718;28;19920;-83
2023/04/08 00:03:00;;;;;;;;;;;;;;;12.12;48.88;99069.47;5113065;28;19916;-82
2023/04/08 00:05:25;;;;;;;;;;;;;;;12.12;48.74;99069.47;5098882;28;20347;-84
2023/04/08 00:07:50;;;;;;;;;;;;;;;12.10;48.79;99072.19;5081663;28;19920;-82
2023/04/08 00:10:16;;;;;;;;;;;;;;;12.10;49.05;99069.59;5098885;28;19916;-79
2023/04/08 00:12:41;;;;;;;;;;;;;;;12.08;48.90;99068.88;5117042;28;20305;-81
2023/04/08 00:15:06;;;;;;;;;;;;;;;12.07;49.23;99066.38;5098406;28;19959;-81
2023/04/08 00:17:33;;;;;;;;;;;;;;;12.05;49.17;99063.88;5116866;28;19916;-80
2023/04/08 00:19:59;;;;;;;;;;;;;;;12.05;49.09;99068.25;5117063;28;20394;-80
2023/04/08 00:22:24;;;;;;;;;;;;;;;12.03;49.04;99076.22;5098862;28;19920;-79
2023/04/08 00:24:50;;;;;;;;;;;;;;;12.02;49.12;99077.19;5098356;28;19923;-80
2023/04/08 00:27:15;;;;;;;;;;;;;;;12.01;49.40;99075.53;5097954;28;19919;-78
2023/04/08 00:29:40;;;;;;;;;;;;;;;12.00;49.53;99068.66;5097851;28;20006;-79
2023/04/08 00:32:06;;;;;;;;;;;;;;;11.99;49.34;99069.59;5081152;28;20016;-79
2023/04/08 00:34:31;;;;;;;;;;;;;;;11.99;49.64;99068.75;5098544;28;19937;-79
2023/04/08 00:36:57;;;;;;;;;;;;;;;11.99;49.62;99064.34;5097781;28;19920;-80
2023/04/08 00:39:22;;;;;;;;;;;;;;;11.99;49.78;99064.34;5081438;28;20286;-81
2023/04/08 00:41:47;;;;;;;;;;;;;;;11.97;49.63;99060.19;5116261;28;19915;-80
2023/04/08 00:44:13;;;;;;;;;;;;;;;11.98;49.74;99069.69;5097580;28;19916;-80
2023/04/08 00:46:38;;;;;;;;;;;;;;;11.97;49.73;99074.09;5098027;28;20374;-80
2023/04/08 00:49:04;;;;;;;;;;;;;;;11.95;49.67;99076.00;5098168;28;20003;-81
2023/04/08 00:51:30;;;;;;;;;;;;;;;11.94;49.95;99074.34;5098286;28;20321;-82
2023/04/08 00:53:55;;;;;;;;;;;;;;;11.94;49.87;99080.41;5098182;28;19916;-80
2023/04/08 00:56:21;;;;;;;;;;;;;;;11.92;50.02;99076.22;5098129;28;19915;-79
2023/04/08 00:58:46;;;;;;;;;;;;;;;11.90;49.74;99080.72;5097955;28;19916;-79
2023/04/08 01:01:14;;;;;;;;;;;;;;;11.90;49.87;99081.53;5116558;28;19916;-79
2023/04/08 01:03:49;;;;;;;;;;;;;;;11.89;50.08;99084.28;5116219;28;19980;-80
2023/04/08 01:06:16;;;;;;;;;;;;;;;11.88;49.96;99087.84;5097737;28;19931;-80
2023/04/08 01:08:41;;;;;;;;;;;;;;;11.88;50.01;99087.84;5097791;28;19916;-80
2023/04/08 01:11:08;;;;;;;;;;;;;;;11.86;49.92;99080.13;5115338;28;20092;-80
2023/04/08 01:13:34;;;;;;;;;;;;;;;11.86;49.75;99084.50;5097872;28;19930;-78
2023/04/08 01:16:00;;;;;;;;;;;;;;;11.86;49.96;99080.13;5097358;28;19919;-80
2023/04/08 01:18:25;;;;;;;;;;;;;;;11.86;49.79;99082.75;5080506;28;19916;-78
2023/04/08 01:20:51;;;;;;;;;;;;;;;11.86;50.08;99084.50;5115472;28;19915;-78
2023/04/08 01:23:19;;;;;;;;;;;;;;;11.85;49.75;99081.06;5097662;28;19920;-78
2023/04/08 01:25:54;;;;;;;;;;;;;;;11.86;49.56;99074.03;5097128;28;19920;-78
2023/04/08 01:28:20;;;;;;;;;;;;;;;11.87;49.71;99080.94;5097197;28;19920;-78
2023/04/08 01:30:46;;;;;;;;;;;;;;;11.85;49.75;99077.63;5080477;28;20014;-78
2023/04/08 01:33:12;;;;;;;;;;;;;;;11.83;49.42;99080.34;5080179;28;19916;-78
2023/04/08 01:35:37;;;;;;;;;;;;;;;11.84;49.52;99083.78;5115447;28;19948;-79
2023/04/08 01:38:03;;;;;;;;;;;;;;;11.85;49.33;99085.47;5096564;28;19924;-79
2023/04/08 01:40:29;;;;;;;;;;;;;;;11.84;49.43;99081.19;5079924;28;19965;-79
2023/04/08 01:42:55;;;;;;;;;;;;;;;11.85;49.20;99094.16;5079741;28;20360;-79
2023/04/08 01:45:20;;;;;;;;;;;;;;;11.84;49.48;99096.88;5097168;28;20354;-78
2023/04/08 01:47:48;;;;;;;;;;;;;;;11.84;49.48;99091.66;5080017;28;20014;-78
2023/04/08 01:50:15;;;;;;;;;;;;;;;11.83;49.33;99097.81;5079834;28;19915;-78
2023/04/08 01:52:40;;;;;;;;;;;;;;;11.83;49.26;99090.81;5097269;28;19922;-78
2023/04/08 01:55:06;;;;;;;;;;;;;;;11.85;49.35;99098.56;5096918;28;20014;-78
2023/04/08 01:57:31;;;;;;;;;;;;;;;11.83;49.26;99103.91;5114869;28;19938;-79
2023/04/08 01:59:58;;;;;;;;;;;;;;;11.84;49.15;99104.72;5096710;28;19916;-78
2023/04/08 02:02:24;;;;;;;;;;;;;;;11.83;49.22;99105.66;5079694;28;20022;-78
2023/04/08 02:04:49;;;;;;;;;;;;;;;11.82;49.05;99104.00;5080074;28;19943;-78
2023/04/08 02:07:15;;;;;;;;;;;;;;;11.83;49.19;99100.44;5096439;28;19927;-78
2023/04/08 02:09:41;;;;;;;;;;;;;;;11.81;48.76;99097.94;5096559;28;19923;-78
2023/04/08 02:12:06;;;;;;;;;;;;;;;11.81;48.94;99100.53;5114675;28;19985;-79
2023/04/08 02:14:31;;;;;;;;;;;;;;;11.82;49.09;99098.78;5115192;28;19972;-79
2023/04/08 02:17:13;;;;;;;;;;;;;;;11.81;49.03;99097.09;5097259;28;20330;-78
2023/04/08 02:19:45;;;;;;;;;;;;;;;11.80;48.94;99098.03;5079356;28;19916;-78
2023/04/08 02:22:30;;;;;;;;;;;;;;;11.79;48.87;99096.41;5115181;28;20314;-78
2023/04/08 02:24:55;;;;;;;;;;;;;;;11.79;48.95;99104.25;5114511;28;19972;-78
2023/04/08 02:27:21;;;;;;;;;;;;;;;11.79;48.74;99104.25;5095605;28;19923;-79
2023/04/08 02:29:46;;;;;;;;;;;;;;;11.76;48.95;99100.91;5096095;28;19927;-79
2023/04/08 02:32:11;;;;;;;;;;;;;;;11.76;48.94;99100.06;5095964;28;19916;-79
2023/04/08 02:34:38;;;;;;;;;;;;;;;11.75;48.92;99096.63;5096295;28;19915;-78
2023/04/08 02:37:03;;;;;;;;;;;;;;;11.74;48.88;99099.34;5079202;28;19916;-78
2023/04/08 02:39:31;;;;;;;;;;;;;;;11.75;48.96;99098.41;5114514;28;20322;-78
2023/04/08 02:41:57;;;;;;;;;;;;;;;11.73;49.01;99090.69;5079356;28;19916;-78
2023/04/08 02:44:22;;;;;;;;;;;;;;;11.71;49.00;99089.94;5096483;28;20007;-78
2023/04/08 02:46:47;;;;;;;;;;;;;;;11.71;48.93;99099.59;5095800;28;20018;-78
2023/04/08 02:49:13;;;;;;;;;;;;;;;11.71;48.88;99105.63;5114322;28;19926;-79
2023/04/08 02:51:38;;;;;;;;;;;;;;;11.71;48.99;99103.03;5095963;28;20325;-78
2023/04/08 02:54:03;;;;;;;;;;;;;;;11.70;49.02;99100.53;5095893;28;19988;-79
2023/04/08 02:56:29;;;;;;;;;;;;;;;11.69;48.87;99099.69;5095793;28;19916;-78
2023/04/08 02:58:55;;;;;;;;;;;;;;;11.68;48.64;99100.63;5096151;28;19920;-79
2023/04/08 03:01:20;;;;;;;;;;;;;;;11.69;49.13;99093.66;5079167;28;20394;-79
2023/04/08 03:03:45;;;;;;;;;;;;;;;11.66;49.11;99106.94;5114044;28;19962;-79
2023/04/08 03:06:11;;;;;;;;;;;;;;;11.65;49.12;99103.47;5078914;28;20382;-78
2023/04/08 03:08:36;;;;;;;;;;;;;;;11.65;48.93;99115.72;5095779;28;20370;-78
2023/04/08 03:11:01;;;;;;;;;;;;;;;11.65;49.11;99110.50;5095683;28;19922;-78
2023/04/08 03:13:28;;;;;;;;;;;;;;;11.65;49.11;99110.50;5095809;28;19922;-78
2023/04/08 03:15:53;;;;;;;;;;;;;;;11.65;49.17;99115.72;5078847;28;19919;-79
2023/04/08 03:18:19;;;;;;;;;;;;;;;11.65;48.98;99113.13;5095139;28;19967;-79
2023/04/08 03:20:44;;;;;;;;;;;;;;;11.65;49.11;99119.16;5094509;28;19968;-78
2023/04/08 03:23:10;;;;;;;;;;;;;;;11.66;48.94;99117.41;5095242;28;19930;-78
2023/04/08 03:25:35;;;;;;;;;;;;;;;11.66;48.96;99120.84;5094895;28;20290;-79
2023/04/08 03:28:00;;;;;;;;;;;;;;;11.66;49.08;99117.41;5095241;28;19919;-78
2023/04/08 03:30:25;;;;;;;;;;;;;;;11.66;49.15;99125.25;5113349;28;20294;-78
2023/04/08 03:32:51;;;;;;;;;;;;;;;11.63;49.00;99121.06;5113561;28;19922;-79
2023/04/08 03:35:16;;;;;;;;;;;;;;;11.66;49.16;99130.50;5095318;28;19922;-78
2023/04/08 03:37:41;;;;;;;;;;;;;;;11.64;49.13;99130.59;5095435;28;20340;-78
2023/04/08 03:40:07;;;;;;;;;;;;;;;11.64;49.01;99135.81;5113235;28;19915;-79
2023/04/08 03:42:33;;;;;;;;;;;;;;;11.64;48.90;99133.22;5113404;28;19916;-79
2023/04/08 03:44:59;;;;;;;;;;;;;;;11.64;49.19;99135.81;5078803;28;19973;-79
2023/04/08 03:47:25;;;;;;;;;;;;;;;11.64;49.08;99141.06;5113389;28;19924;-79
2023/04/08 03:49:51;;;;;;;;;;;;;;;11.67;48.71;99130.38;5078428;28;20010;-79
2023/04/08 03:52:17;;;;;;;;;;;;;;;11.66;48.65;99131.31;5113361;28;19916;-78
2023/04/08 03:54:42;;;;;;;;;;;;;;;11.67;49.06;99133.00;5078366;28;20291;-79
2023/04/08 03:57:07;;;;;;;;;;;;;;;11.68;48.85;99144.28;5077670;28;19915;-79
2023/04/08 03:59:33;;;;;;;;;;;;;;;11.68;48.55;99150.31;5095200;28;19922;-78
2023/04/08 04:01:59;;;;;;;;;;;;;;;11.69;48.53;99146.78;5095445;28;19915;-79
2023/04/08 04:04:24;;;;;;;;;;;;;;;11.69;48.83;99149.38;5113488;28;19942;-79
2023/04/08 04:06:49;;;;;;;;;;;;;;;11.68;48.49;99144.28;5077640;28;20010;-79
2023/04/08 04:09:15;;;;;;;;;;;;;;;11.70;48.58;99148.44;5095265;28;19981;-79
2023/04/08 04:11:41;;;;;;;;;;;;;;;11.70;48.62;99147.59;5078739;28;19924;-79
2023/04/08 04:14:06;;;;;;;;;;;;;;;11.69;48.51;99138.94;5094669;28;20379;-79
2023/04/08 04:16:31;;;;;;;;;;;;;;;11.71;48.38;99136.19;5094989;28;19959;-78
2023/04/08 04:18:56;;;;;;;;;;;;;;;11.71;48.50;99141.44;5095257;28;19922;-79
2023/04/08 04:21:22;;;;;;;;;;;;;;;11.71;48.55;99138.81;5095110;28;19920;-79
2023/04/08 04:23:47;;;;;;;;;;;;;;;11.71;48.57;99144.88;5077699;28;20358;-79
2023/04/08 04:26:14;;;;;;;;;;;;;;;11.72;48.43;99141.31;5112752;28;20232;-78
2023/04/08 04:28:39;;;;;;;;;;;;;;;11.73;48.42;99140.38;5113030;28;20379;-80
2023/04/08 04:31:04;;;;;;;;;;;;;;;11.72;48.30;99136.09;5077869;28;19920;-79
2023/04/08 04:33:30;;;;;;;;;;;;;;;11.73;48.34;99139.53;5094744;28;19911;-79
2023/04/08 04:35:55;;;;;;;;;;;;;;;11.73;48.34;99135.16;5077581;28;19965;-80
2023/04/08 04:38:20;;;;;;;;;;;;;;;11.74;48.33;99131.56;5094627;28;19974;-81
2023/04/08 04:40:46;;;;;;;;;;;;;;;11.74;48.30;99128.94;5094836;28;20320;-79
2023/04/08 04:43:11;;;;;;;;;;;;;;;11.77;48.22;99127.91;5094405;28;19912;-79
2023/04/08 04:45:36;;;;;;;;;;;;;;;11.80;48.15;99138.13;5094452;28;19966;-79
2023/04/08 04:48:02;;;;;;;;;;;;;;;11.84;47.94;99136.09;5112869;28;20431;-80
2023/04/08 04:50:27;;;;;;;;;;;;;;;11.88;47.89;99141.00;5095685;28;19916;-79
2023/04/08 04:52:53;;;;;;;;;;;;;;;11.91;47.70;99132.91;5080971;28;19922;-80
2023/04/08 04:55:18;;;;;;;;;;;;;;;11.98;47.59;99135.09;5116414;28;19969;-79
2023/04/08 04:57:43;;;;;;;;;;;;;;;12.04;47.16;99137.25;5081438;28;20014;-79
2023/04/08 05:00:09;;;;;;;;;;;;;;;12.08;47.03;99144.75;5097529;28;20371;-80
2023/04/08 05:02:34;;;;;;;;;;;;;;;12.12;46.89;99140.13;5097699;28;19920;-79
2023/04/08 05:05:00;;;;;;;;;;;;;;;12.17;47.25;99145.00;5097636;28;19965;-80
2023/04/08 05:07:25;;;;;;;;;;;;;;;12.21;46.85;99138.59;5097536;28;19915;-80
2023/04/08 05:09:50;;;;;;;;;;;;;;;12.25;46.79;99147.88;5097269;28;19924;-80
2023/04/08 05:12:16;;;;;;;;;;;;;;;12.30;47.01;99145.72;5098045;28;20282;-79
2023/04/08 05:14:41;;;;;;;;;;;;;;;12.34;46.59;99147.16;5080946;28;19915;-79
2023/04/08 05:17:06;;;;;;;;;;;;;;;12.36;46.35;99147.88;5097436;28;19916;-80
2023/04/08 05:19:32;;;;;;;;;;;;;;;12.41;46.24;99150.13;5080100;28;20374;-79
2023/04/08 05:21:57;;;;;;;;;;;;;;;12.43;46.57;99146.47;5098203;28;19916;-80
2023/04/08 05:24:22;;;;;;;;;;;;;;;12.49;46.51;99151.22;5115677;28;19916;-78
2023/04/08 05:26:51;;;;;;;;;;;;;;;12.52;46.06;99150.13;5097147;28;19927;-79
2023/04/08 05:29:17;;;;;;;;;;;;;;;12.58;45.91;99162.75;5097977;28;19983;-80
2023/04/08 05:31:42;;;;;;;;;;;;;;;12.63;45.80;99160.63;5097450;28;19965;-79
2023/04/08 05:34:07;;;;;;;;;;;;;;;12.67;45.47;99158.59;5115987;28;20376;-79
2023/04/08 05:36:33;;;;;;;;;;;;;;;12.71;45.23;99156.56;5097078;28;20028;-78
2023/04/08 05:38:58;;;;;;;;;;;;;;;12.75;45.09;99156.19;5096639;28;19916;-81
2023/04/08 05:41:23;;;;;;;;;;;;;;;12.84;44.90;99150.25;5096746;28;19915;-80
2023/04/08 05:43:49;;;;;;;;;;;;;;;12.98;44.76;99151.78;5080449;28;19916;-86
2023/04/08 05:46:14;;;;;;;;;;;;;;;13.16;44.43;99146.84;5080470;28;20333;-81
2023/04/08 05:48:40;;;;;;;;;;;;;;;13.40;43.79;99143.22;5097175;28;20378;-81
2023/04/08 05:51:06;;;;;;;;;;;;;;;13.60;43.58;99138.97;5097075;28;19922;-79
2023/04/08 05:53:31;;;;;;;;;;;;;;;13.87;53.95;99140.25;5096775;28;19923;-73
2023/04/08 05:55:58;;;;;;;;;;;;;;;14.30;53.27;99142.69;5098713;28;19916;-84
2023/04/08 05:58:24;;;;;;;;;;;;;;;14.61;48.80;99139.25;5080115;28;19930;-79
2023/04/08 06:00:49;;;;;;;;;;;;;;;14.85;48.60;99141.56;5080585;28;20302;-81
2023/04/08 06:03:14;;;;;;;;;;;;;;;15.25;51.50;99143.28;5096541;28;20302;-79
2023/04/08 06:05:40;;;;;;;;;;;;;;;15.53;50.95;99149.53;5115230;28;19916;-80
2023/04/08 06:08:05;;;;;;;;;;;;;;;15.63;48.27;99152.16;5080454;28;19916;-79
2023/04/08 06:10:31;;;;;;;;;;;;;;;15.68;46.56;99155.19;5080097;28;20386;-84
2023/04/08 06:12:58;;;;;;;;;;;;;;;15.72;48.11;99155.75;5097441;28;19922;-84
2023/04/08 06:15:23;;;;;;;;;;;;;;;15.79;45.40;99158.69;5080260;28;20295;-78
2023/04/08 06:17:48;;;;;;;;;;;;;;;15.89;50.54;99164.75;5115154;28;19923;-79
2023/04/08 06:20:14;;;;;;;;;;;;;;;15.97;47.92;99164.91;5079718;28;19926;-78
2023/04/08 06:22:40;;;;;;;;;;;;;;;15.98;48.08;99169.19;5082266;28;19920;-75
2023/04/08 06:25:06;;;;;;;;;;;;;;;16.08;49.89;99170.00;5103233;28;19919;-83
2023/04/08 06:27:31;;;;;;;;;;;;;;;16.15;48.75;99172.91;5079769;28;19996;-79
2023/04/08 06:29:57;;;;;;;;;;;;;;;16.15;48.54;99188.69;5081060;28;20470;-76
2023/04/08 06:32:22;;;;;;;;;;;;;;;16.07;46.61;99181.50;5098700;28;20010;-80
2023/04/08 06:34:48;;;;;;;;;;;;;;;16.02;46.59;99186.38;5098224;28;20419;-82
2023/04/08 06:37:14;;;;;;;;;;;;;;;15.96;45.51;99186.94;5115343;28;19920;-78
2023/04/08 06:39:40;;;;;;;;;;;;;;;15.94;47.57;99181.00;5096802;28;19915;-78
2023/04/08 06:42:05;;;;;;;;;;;;;;;15.93;47.30;99187.22;5079878;28;20363;-78
2023/04/08 06:44:31;;;;;;;;;;;;;;;15.91;45.51;99179.44;5097039;28;20374;-77
2023/04/08 06:46:56;;;;;;;;;;;;;;;15.98;48.90;99177.09;5079125;28;19959;-77
2023/04/08 06:49:21;;;;;;;;;;;;;;;16.21;55.09;99187.31;5079988;28;19922;-78
2023/04/08 06:51:47;;;;;;;;;;;;;;;16.46;52.84;99178.78;5079365;28;19968;-80
2023/04/08 06:54:12;;;;;;;;;;;;;;;16.64;49.13;99178.03;5095405;28;19920;-76
2023/04/08 06:56:38;;;;;;;;;;;;;;;16.69;47.22;99175.78;5113593;28;19916;-74
2023/04/08 06:59:03;;;;;;;;;;;;;;;16.63;46.65;99189.53;5095689;28;19916;-78
2023/04/08 07:01:29;;;;;;;;;;;;;;;16.66;45.37;99188.41;5096099;28;19915;-80
2023/04/08 07:03:54;;;;;;;;;;;;;;;16.68;44.41;99176.72;5079062;28;19971;-79
2023/04/08 07:06:19;;;;;;;;;;;;;;;16.74;46.85;99186.69;5099039;28;19926;-75
2023/04/08 07:08:45;;;;;;;;;;;;;;;16.96;45.77;99195.25;5116849;28;19915;-79
2023/04/08 07:11:11;;;;;;;;;;;;;;;17.10;44.09;99197.38;5078274;28;19916;-71
2023/04/08 07:13:36;;;;;;;;;;;;;;;17.17;43.36;99198.47;5094550;28;19916;-73
2023/04/08 07:16:01;;;;;;;;;;;;;;;17.14;45.49;99204.03;5113345;28;20418;-76
2023/04/08 07:18:27;;;;;;;;;;;;;;;17.29;45.31;99206.16;5078066;28;19927;-74
2023/04/08 07:20:55;;;;;;;;;;;;;;;17.36;43.15;99205.44;5112992;28;19923;-72
2023/04/08 07:23:20;;;;;;;;;;;;;;;17.31;44.11;99201.56;5095586;28;19920;-77
2023/04/08 07:25:46;;;;;;;;;;;;;;;17.28;42.92;99209.78;5094606;28;19976;-76
2023/04/08 07:28:11;;;;;;;;;;;;;;;17.24;41.98;99216.34;5093531;28;19920;-78
2023/04/08 07:30:37;;;;;;;;;;;;;;;17.25;41.12;99210.91;5077307;28;19916;-73
2023/04/08 07:33:02;;;;;;;;;;;;;;;17.25;40.49;99212.72;5093781;28;20344;-71
2023/04/08 07:35:28;;;;;;;;;;;;;;;17.29;40.13;99207.00;5111528;28;19947;-73
2023/04/08 07:37:53;;;;;;;;;;;;;;;17.50;39.51;99205.88;5093307;28;20407;-72
2023/04/08 07:40:19;;;;;;;;;;;;;;;17.57;39.36;99204.31;5093459;28;19928;-73
2023/04/08 07:42:45;;;;;;;;;;;;;;;17.66;38.96;99205.19;5093780;28;19926;-71
2023/04/08 07:45:10;;;;;;;;;;;;;;;17.87;38.63;99215.47;5076629;28;20318;-71
2023/04/08 07:47:35;;;;;;;;;;;;;;;17.98;37.92;99209.13;5104836;28;20011;-74
2023/04/08 07:50:01;;;;;;;;;;;;;;;18.22;37.43;99214.59;5088649;28;19920;-73
2023/04/08 07:52:26;;;;;;;;;;;;;;;18.42;37.03;99211.75;5104583;28;19919;-72
2023/04/08 07:54:52;;;;;;;;;;;;;;;18.56;36.36;99213.81;5076328;28;20011;-71
2023/04/08 07:57:17;;;;;;;;;;;;;;;19.06;35.61;99209.63;5092863;28;19919;-74
2023/04/08 07:59:42;;;;;;;;;;;;;;;19.42;34.93;99205.88;5090238;28;19923;-74
2023/04/08 08:02:08;;;;;;;;;;;;;;;19.46;34.91;99210.69;5089363;28;19920;-73
2023/04/08 08:04:33;;;;;;;;;;;;;;;19.50;38.69;99213.88;5093273;28;20271;-74
2023/04/08 08:06:58;;;;;;;;;;;;;;;19.70;36.67;99207.28;5111858;28;19973;-73
2023/04/08 08:09:24;;;;;;;;;;;;;;;19.85;35.23;99222.53;5076689;28;19915;-75
2023/04/08 08:11:49;;;;;;;;;;;;;;;19.94;34.62;99218.06;5077159;28;19916;-72
2023/04/08 08:14:15;;;;;;;;;;;;;;;19.99;34.30;99215.75;5071762;28;19935;-74
2023/04/08 08:16:40;;;;;;;;;;;;;;;20.91;32.46;99208.28;5093383;28;19916;-74
2023/04/08 08:19:07;;;;;;;;;;;;;;;21.29;32.46;99200.47;5073226;28;20379;-73
2023/04/08 08:21:35;;;;;;;;;;;;;;;22.11;31.09;99206.22;5100383;28;19927;-75
2023/04/08 08:24:00;;;;;;;;;;;;;;;22.92;29.70;99201.88;5084987;28;19931;-74
2023/04/08 08:26:26;;;;;;;;;;;;;;;22.58;30.15;99205.09;5134561;27;19920;-74
2023/04/08 08:28:51;;;;;;;;;;;;;;;22.41;34.66;99209.78;5118527;27;20362;-77
2023/04/08 08:31:16;;;;;;;;;;;;;;;22.02;35.48;99214.25;5118135;27;20456;-75
2023/04/08 08:33:42;;;;;;;;;;;;;;;22.05;36.36;99213.06;5136153;27;20426;-85
2023/04/08 08:36:07;;;;;;;;;;;;;;;21.58;36.52;99208.78;5117928;27;19926;-78
2023/04/08 08:38:32;;;;;;;;;;;;;;;21.13;33.72;99205.88;5101661;27;19911;-82
2023/04/08 08:40:58;;;;;;;;;;;;;;;20.86;34.22;99212.44;5101084;27;19968;-78
2023/04/08 08:43:23;;;;;;;;;;;;;;;20.79;33.57;99214.97;5118409;27;19911;-81
2023/04/08 08:45:48;;;;;;;;;;;;;;;20.67;33.35;99206.56;5117985;27;19927;-76
2023/04/08 08:48:14;;;;;;;;;;;;;;;20.66;33.08;99204.91;5136899;27;19976;-78
2023/04/08 08:50:39;;;;;;;;;;;;;;;20.63;32.81;99212.34;5117934;27;19938;-73
2023/04/08 08:53:05;;;;;;;;;;;;;;;20.82;35.53;99208.50;5119040;27;20322;-71
2023/04/08 08:55:33;;;;;;;;;;;;;;;21.04;33.39;99214.88;5136747;27;20401;-74
2023/04/08 08:58:00;;;;;;;;;;;;;;;20.97;32.83;99214.75;5101710;27;19915;-75
2023/04/08 09:00:38;;;;;;;;;;;;;;;21.12;31.88;99210.34;5079053;28;20303;-75
2023/04/08 09:03:16;;;;;;;;;;;;;;;21.27;32.13;99206.97;5058068;28;19990;-76
2023/04/08 09:05:48;;;;;;;;;;;;;;;21.15;31.91;99209.19;5075086;28;20015;-76
2023/04/08 09:08:32;;;;;;;;;;;;;;;21.40;31.24;99206.41;5092841;28;20391;-75
2023/04/08 09:11:13;;;;;;;;;;;;;;;21.57;30.16;99210.63;5076461;28;19916;-75
2023/04/08 09:13:38;;;;;;;;;;;;;;;21.49;30.92;99200.03;5094684;28;20387;-76
2023/04/08 09:16:04;;;;;;;;;;;;;;;21.51;30.79;99203.34;5077448;28;19970;-77
2023/04/08 09:18:30;;;;;;;;;;;;;;;21.58;30.59;99209.59;5095678;28;19930;-75
2023/04/08 09:20:56;;;;;;;;;;;;;;;22.07;30.16;99204.91;5077316;28;20370;-77
2023/04/08 09:23:21;;;;;;;;;;;;;;;22.27;29.96;99215.88;5094108;28;19973;-73
2023/04/08 09:25:46;;;;;;;;;;;;;;;22.54;29.68;99204.63;5075951;28;19920;-74
2023/04/08 09:28:19;;;;;;;;;;;;;;;23.02;28.97;99209.56;5075687;28;19944;-72
2023/04/08 09:30:45;;;;;;;;;;;;;;;23.16;28.67;99197.25;5076362;28;19920;-72
2023/04/08 09:33:10;;;;;;;;;;;;;;;23.18;28.58;99205.88;5076307;28;19922;-73
2023/04/08 09:35:35;;;;;;;;;;;;;;;23.26;28.15;99215.59;5094909;28;20375;-72
2023/04/08 09:38:01;;;;;;;;;;;;;;;23.38;28.14;99211.44;5076152;28;19967;-72
2023/04/08 09:40:26;;;;;;;;;;;;;;;23.51;27.80;99204.59;5076591;28;19963;-73
2023/04/08 09:42:52;;;;;;;;;;;;;;;23.23;27.12;99206.16;5094702;28;19916;-72
2023/04/08 09:45:17;;;;;;;;;;;;;;;23.12;27.98;99204.81;5076557;28;19965;-73
2023/04/08 09:47:46;;;;;;;;;;;;;;;23.12;27.88;99207.47;5075976;28;20003;-72
2023/04/08 09:50:11;;;;;;;;;;;;;;;23.15;27.72;99214.28;5094449;28;19923;-73
2023/04/08 09:52:43;;;;;;;;;;;;;;;23.16;27.64;99202.59;5094619;28;19916;-72
2023/04/08 09:55:08;;;;;;;;;;;;;;;23.21;27.76;99208.16;5076158;28;20011;-73
2023/04/08 09:57:43;;;;;;;;;;;;;;;23.08;28.15;99202.69;5076073;28;19955;-72
2023/04/08 10:00:15;;;;;;;;;;;;;;;23.11;27.78;99197.00;5076857;28;19923;-71
2023/04/08 10:02:43;;;;;;;;;;;;;;;23.18;27.77;99194.41;5076158;28;20371;-75
2023/04/08 10:05:09;;;;;;;;;;;;;;;23.28;27.75;99197.63;5093113;28;19922;-72
2023/04/08 10:07:35;;;;;;;;;;;;;;;23.37;27.63;99195.63;5076185;28;19959;-73
2023/04/08 10:10:00;;;;;;;;;;;;;;;23.56;27.81;99192.38;5094242;28;19963;-74
2023/04/08 10:12:26;;;;;;;;;;;;;;;23.65;27.47;99191.19;5075028;28;20015;-72
2023/04/08 10:15:11;;;;;;;;;;;;;;;23.67;27.68;99183.88;5093214;28;19916;-74
2023/04/08 10:17:37;;;;;;;;;;;;;;;24.00;27.29;99185.19;5094076;28;19916;-74
2023/04/08 10:20:02;;;;;;;;;;;;;;;24.15;26.88;99183.25;5094358;28;19916;-74
2023/04/08 10:22:27;;;;;;;;;;;;;;;24.15;27.16;99169.09;5075613;28;20287;-74
2023/04/08 10:25:11;;;;;;;;;;;;;;;23.99;27.19;99178.22;5092355;28;19916;-74
2023/04/08 10:27:42;;;;;;;;;;;;;;;23.84;27.41;99170.28;5093844;28;19924;-73
2023/04/08 10:30:31;;;;;;;;;;;;;;;23.72;27.12;99171.78;5075883;28;19916;-73
2023/04/08 10:33:00;;;;;;;;;;;;;;;23.57;27.47;99164.69;5065900;28;19927;-74
2023/04/08 10:35:29;;;;;;;;;;;;;;;23.56;27.65;99168.38;5075967;28;19920;-72
2023/04/08 10:37:54;;;;;;;;;;;;;;;23.60;27.61;99166.97;5069037;28;19935;-73
2023/04/08 10:40:20;;;;;;;;;;;;;;;23.39;27.75;99158.97;5075451;28;19920;-75
2023/04/08 10:42:45;;;;;;;;;;;;;;;23.33;27.63;99157.91;5075601;28;19923;-74
2023/04/08 10:45:16;;;;;;;;;;;;;;;23.32;27.66;99153.59;5093631;28;19916;-77
2023/04/08 10:47:41;;;;;;;;;;;;;;;23.32;27.57;99148.25;5075537;28;19922;-75
2023/04/08 10:50:13;;;;;;;;;;;;;;;23.25;27.81;99140.22;5058544;28;19998;-73
2023/04/08 10:52:46;;;;;;;;;;;;;;;23.16;28.04;99144.00;5080584;28;19973;-79
2023/04/08 10:55:11;;;;;;;;;;;;;;;23.12;27.76;99140.91;5095050;28;19915;-72
2023/04/08 10:57:39;;;;;;;;;;;;;;;23.02;27.22;99144.84;5095612;28;20434;-73
2023/04/08 11:00:05;;;;;;;;;;;;;;;22.76;28.95;99140.88;5077861;28;20396;-71
2023/04/08 11:02:33;;;;;;;;;;;;;;;22.74;28.80;99140.22;5113284;28;19916;-72
2023/04/08 11:04:59;;;;;;;;;;;;;;;22.66;28.47;99137.66;5078485;28;19916;-72
2023/04/08 11:07:24;;;;;;;;;;;;;;;22.55;28.74;99134.47;5095280;28;20361;-71
